Airfield :
LOGIN :

Register | Disclaimer

   EN    FR    IT 

 










Legend :    VFR   Marginal VFR   IFR   Intensive IFR   Very Intensive IFR
Visi :
Ceiling :
>= 8 km
>= 3000ft
5 to 8 km
1000 to 3000 ft
1500m to 5 km
500 to 1000 ft
800 to 1500m
200 to 500 ft
< 800m
< 200 ft
Symbols :   Thunderstorms  Fog  Heavy snow  Heavy precipitations  Wind > 20 kt
SIGMETs :     Misc.  Thunderstorms  Icing  Turbulence  Mountain Waves  Volcanic Ashes






- Airport Elevation : 526 ft
- IATA code : LTN


EGGW - London Luton

CURRENT METAR :
  • 080150Z AUTO 21017KT 7000 -RA BKN009/// OVC012/// //////TCU 09/08 Q1000

EXPIRED METARs :
  • 080120Z AUTO 20018G30KT 9000 -RA OVC012/// //////TCU 10/08 Q1001
  • 080050Z AUTO 20020G32KT 9999 OVC010 10/08 Q1002
  • 080020Z AUTO 21022G33KT 9999 OVC010 10/08 Q1002
  • 072350Z AUTO 20019KT 9999 BKN009 OVC013 10/08 Q1003
  • 072320Z AUTO 20019KT 9999 OVC008 09/08 Q1004

TAF AMD TAF EGGW
Valid from the 08 at 01:00 until the 09 at 00:00 UTC


080120Z 0801/0824 21020KT 9999 BKN010
TEMPO 0801/0805 22024G34KT 6000 RA BKN008
PROB30
TEMPO 0802/0804 4000 +RA
BECMG 0805/0808 25018KT FEW025
TEMPO 0812/0824 26024G36KT 6000 SHRA
PROB30
TEMPO 0815/0818 4000 +SHRA
PROB30
TEMPO 0818/0824 BKN010
ATIS : +44 1582 395 204



MET'MAP, your aeronautical weather chart ! - Copyright ORBIFLY December 2007 - Disclaimer

ORBIFLY MET'MAP TEAM :

Programming & Development : Alexandra Zaïnal
Concept & original design : Baudouin d'Aumeries
Assistance for programming : Marc-Olivier Méhu
Technical & hardware support : Manuel Goepfert

Contact : metmap@orbifly.com




SOURCES & CREDITS :

   NOAA